N Moorhead
6/1/18 12:00 AM : 1 Month
Gateway Gateway Gateway Gateway Gateway Gateway Gateway Gateway Gateway Gateway Gateway Gateway Gateway Gateway Gateway Gateway
Vantage Pro2 Vantage Pro2 Vantage Pro2 Vantage Pro2 Vantage Pro2 Vantage Pro2 Vantage Pro2 Vantage Pro2 Vantage Pro2 Vantage Pro2 Vantage Pro2 Vantage Pro2 Vantage Pro2 Vantage Pro2 Vantage Pro2 Vantage Pro2
Date & Time Temp - F High Temp - F Low Temp - F Hum - % Dew Point - F Wind Speed - mph Wind Direction High Wind Speed - mph High Wind Direction Wind Chill - F Heat Index - F Barometer - in Hg Rain - in Rain Rate - in Heating Degree Days Cooling Degree Days
6/1/18 0:00 66 66 65.9 67 54.7 1 E 2 E 66 65.7 29.809 0 0 0 0.003
6/1/18 0:05 66 66.1 66 67 54.7 0 -- 1 E 66 65.7 29.81 0 0 0 0.003
6/1/18 0:10 66.2 66.2 66 67 54.9 0 -- 0 -- 66.2 66 29.811 0 0 0 0.004
6/1/18 0:15 66.3 66.4 66.1 67 55 0 -- 1 E 66.3 66.1 29.811 0 0 0 0.005
6/1/18 0:20 66 66.3 66 68 55.1 0 -- 1 E 66 65.8 29.813 0 0 0 0.003
6/1/18 0:25 65.6 66 65.6 68 54.8 0 -- 1 E 65.6 65.3 29.812 0 0 0 0.002
6/1/18 0:30 65.4 65.6 65.3 68 54.6 0 -- 1 E 65.4 65.1 29.811 0 0 0 0.001
6/1/18 0:35 65.3 65.4 65.3 69 54.9 0 -- 0 -- 65.3 65 29.81 0 0 0 0.001
6/1/18 0:40 65.2 65.3 65.1 69 54.8 0 -- 0 -- 65.2 64.9 29.81 0 0 0 0.001
6/1/18 0:45 65.7 65.7 65.3 68 54.8 0 -- 0 -- 65.7 65.4 29.808 0 0 0 0.002
6/1/18 0:50 65.7 65.8 65.6 68 54.8 0 -- 0 -- 65.7 65.4 29.812 0 0 0 0.002
6/1/18 0:55 65.6 65.6 65.4 68 54.8 0 -- 1 E 65.6 65.3 29.811 0 0 0 0.002
6/1/18 1:00 66 66 65.6 68 55.1 0 -- 0 -- 66 65.8 29.809 0 0 0 0.003
6/1/18 1:05 65.3 66 65.3 68 54.5 0 -- 0 -- 65.3 64.9 29.813 0 0 0 0.001
6/1/18 1:10 64.8 65.3 64.7 69 54.4 0 -- 0 -- 64.8 64.4 29.817 0 0 0.001 0
6/1/18 1:15 64.4 64.8 64.4 70 54.4 0 -- 0 -- 64.4 64 29.821 0 0 0.002 0
6/1/18 1:20 64.2 64.4 64.2 70 54.2 0 -- 1 E 64.2 63.8 29.82 0 0 0.003 0
6/1/18 1:25 64.2 64.2 64.1 71 54.6 0 -- 1 E 64.2 63.9 29.824 0 0 0.003 0
6/1/18 1:30 64.1 64.2 64.1 71 54.5 0 -- 1 E 64.1 63.8 29.828 0 0 0.003 0
6/1/18 1:35 64.1 64.2 64 71 54.5 0 -- 2 ENE 64.1 63.8 29.828 0 0 0.003 0
6/1/18 1:40 64.6 64.6 64 70 54.6 1 ENE 2 ENE 64.6 64.3 29.83 0 0 0.001 0
6/1/18 1:45 64.7 64.8 64.6 70 54.7 0 -- 2 ENE 64.7 64.4 29.834 0 0 0.001 0
6/1/18 1:50 64.9 64.9 64.7 69 54.5 1 ENE 1 ENE 64.9 64.5 29.83 0 0 0 0
6/1/18 1:55 65 65 64.9 69 54.6 1 ENE 2 ENE 65 64.6 29.83 0 0 0 0
6/1/18 2:00 64.6 65 64.6 70 54.6 1 ENE 2 ENE 64.6 64.3 29.837 0 0 0.001 0
6/1/18 2:05 64.3 64.6 64.3 71 54.7 1 NNW 3 N 64.3 64 29.84 0 0 0.002 0
6/1/18 2:10 64.1 64.4 64.1 72 54.9 0 -- 2 N 64.1 63.8 29.838 0 0 0.003 0
6/1/18 2:15 63.7 64.1 63.7 73 54.9 0 -- 1 N 63.7 63.5 29.839 0 0 0.005 0
6/1/18 2:20 63.6 63.7 63.4 74 55.2 0 -- 2 N 63.6 63.4 29.842 0 0 0.005 0
6/1/18 2:25 64 64 63.6 73 55.2 0 -- 2 NNE 64 63.8 29.842 0 0 0.003 0
6/1/18 2:30 63.8 64 63.8 73 55 1 NE 2 NNE 63.8 63.6 29.838 0 0 0.004 0
6/1/18 2:35 63.5 63.9 63.5 73 54.7 1 NE 2 NE 63.5 63.2 29.839 0 0 0.005 0
6/1/18 2:40 63.3 63.5 63.3 74 54.9 0 -- 1 NE 63.3 63.1 29.838 0 0 0.006 0
6/1/18 2:45 63.2 63.3 63.2 74 54.8 1 ENE 2 NE 63.2 63 29.836 0 0 0.006 0
6/1/18 2:50 63.2 63.2 63.2 74 54.8 0 -- 2 ENE 63.2 63 29.837 0 0 0.006 0
6/1/18 2:55 63.1 63.2 63.1 74 54.7 0 -- 2 ENE 63.1 62.8 29.837 0 0 0.007 0
6/1/18 3:00 63 63.1 63 74 54.6 0 -- 1 ENE 63 62.7 29.84 0 0 0.007 0
6/1/18 3:05 62.9 63 62.9 75 54.9 0 -- 2 ENE 62.9 62.7 29.839 0 0 0.007 0
6/1/18 3:10 62.9 62.9 62.7 75 54.9 1 NE 2 ENE 62.9 62.7 29.839 0 0 0.007 0
6/1/18 3:15 62.7 62.9 62.7 76 55 1 NE 2 NE 62.7 62.5 29.836 0 0 0.008 0
6/1/18 3:20 62.8 62.8 62.7 76 55.1 2 NE 4 NNE 62.8 62.7 29.839 0 0 0.008 0
6/1/18 3:25 62.8 62.8 62.7 76 55.1 1 NE 3 NE 62.8 62.7 29.838 0 0 0.008 0
6/1/18 3:30 62.8 62.8 62.7 76 55.1 1 NE 3 NE 62.8 62.7 29.838 0 0 0.008 0
6/1/18 3:35 62.7 62.8 62.7 76 55 1 NE 3 NE 62.7 62.5 29.837 0 0 0.008 0
6/1/18 3:40 62.5 62.7 62.5 77 55.2 1 NE 2 NE 62.5 62.4 29.837 0 0 0.009 0
6/1/18 3:45 62.3 62.5 62.3 77 55 0 -- 2 NE 62.3 62.2 29.841 0 0 0.009 0
6/1/18 3:50 62.3 62.3 62.2 77 55 1 ENE 2 ENE 62.3 62.2 29.839 0 0 0.009 0
6/1/18 3:55 62.1 62.3 62.1 78 55.2 0 -- 1 ENE 62.1 62 29.838 0 0 0.01 0
6/1/18 4:00 62.2 62.2 62.1 78 55.3 0 -- 1 ENE 62.2 62.2 29.835 0 0 0.01 0
6/1/18 4:05 62.3 62.3 62.2 77 55 0 -- 1 ENE 62.3 62.2 29.832 0 0 0.009 0
6/1/18 4:10 62.1 62.3 62.1 77 54.8 0 -- 1 ENE 62.1 62 29.833 0 0 0.01 0
6/1/18 4:15 61.4 62.2 61.4 78 54.5 0 -- 0 -- 61.4 61.2 29.837 0 0 0.012 0
6/1/18 4:20 61.6 61.6 61.2 80 55.4 0 -- 1 ENE 61.6 61.6 29.832 0 0 0.012 0
6/1/18 4:25 62.1 62.1 61.6 79 55.5 0 -- 1 ENE 62.1 62.1 29.835 0 0 0.01 0
6/1/18 4:30 61.6 62.1 61.6 79 55 0 -- 0 -- 61.6 61.5 29.84 0 0 0.012 0
6/1/18 4:35 61 61.5 61 80 54.8 0 -- 0 -- 61 60.9 29.846 0 0 0.014 0
6/1/18 4:40 61.1 61.1 60.8 81 55.2 0 -- 2 ENE 61.1 61.1 29.845 0 0 0.014 0
6/1/18 4:45 61.5 61.5 61.1 80 55.3 1 ENE 2 ENE 61.5 61.5 29.833 0 0 0.012 0
6/1/18 4:50 61.3 61.5 61.3 80 55.1 1 E 2 E 61.3 61.3 29.839 0 0 0.013 0
6/1/18 4:55 61 61.3 61 80 54.8 0 -- 1 E 61 60.9 29.849 0 0 0.014 0
6/1/18 5:00 60.8 61 60.8 81 54.9 0 -- 2 E 60.8 60.7 29.855 0 0 0.015 0
6/1/18 5:05 60.7 60.9 60.6 81 54.8 0 -- 1 E 60.7 60.6 29.853 0 0 0.015 0
6/1/18 5:10 61.3 61.3 60.7 81 55.4 0 -- 0 -- 61.3 61.3 29.851 0 0 0.013 0
6/1/18 5:15 61.3 61.3 61.2 80 55.1 0 -- 0 -- 61.3 61.3 29.851 0 0 0.013 0
6/1/18 5:20 61.4 61.4 61.2 80 55.2 0 -- 0 -- 61.4 61.4 29.849 0 0 0.012 0
6/1/18 5:25 61.5 61.5 61.3 80 55.3 1 ESE 2 ESE 61.5 61.5 29.849 0 0 0.012 0
6/1/18 5:30 61.9 61.9 61.4 80 55.7 2 SE 4 ESE 61.9 62 29.85 0 0 0.011 0
6/1/18 5:35 62.4 62.4 61.9 80 56.1 2 ESE 6 ESE 62.4 62.5 29.852 0 0 0.009 0
6/1/18 5:40 62.7 62.7 62.5 80 56.4 2 ESE 3 ESE 62.7 62.9 29.851 0 0 0.008 0
6/1/18 5:45 62.8 62.8 62.7 80 56.5 1 ESE 2 ESE 62.8 63 29.851 0 0 0.008 0
6/1/18 5:50 62.9 62.9 62.8 79 56.3 1 ESE 2 ESE 62.9 63 29.854 0 0 0.007 0
6/1/18 5:55 62.9 62.9 62.9 80 56.6 1 SE 3 SE 62.9 63.1 29.858 0 0 0.007 0
6/1/18 6:00 63 63 62.9 79 56.4 2 SE 5 SE 63 63.1 29.862 0 0 0.007 0
6/1/18 6:05 63 63.1 62.9 80 56.7 2 SE 4 SE 63 63.2 29.858 0 0 0.007 0
6/1/18 6:10 63 63 63 80 56.7 2 SE 4 SE 63 63.2 29.856 0 0 0.007 0
6/1/18 6:15 63.1 63.1 62.9 80 56.8 3 ESE 4 ESE 63.1 63.3 29.856 0 0 0.007 0
6/1/18 6:20 63.1 63.1 63 80 56.8 3 SE 7 SE 63.1 63.3 29.855 0 0 0.007 0
6/1/18 6:25 63.1 63.2 63.1 80 56.8 3 ESE 5 SE 63.1 63.3 29.858 0 0 0.007 0
6/1/18 6:30 63.2 63.2 63.1 80 56.9 2 ESE 5 SE 63.2 63.4 29.861 0 0 0.006 0
6/1/18 6:35 63.3 63.3 63.2 80 57 2 ESE 4 SSE 63.3 63.6 29.86 0 0 0.006 0
6/1/18 6:40 63.4 63.4 63.3 80 57.1 2 ESE 4 SE 63.4 63.7 29.859 0 0 0.006 0
6/1/18 6:45 63.5 63.5 63.4 80 57.2 3 ESE 7 SSE 63.5 63.8 29.857 0 0 0.005 0
6/1/18 6:50 63.5 63.5 63.4 80 57.2 3 ESE 6 E 63.5 63.8 29.86 0 0 0.005 0
6/1/18 6:55 63.5 63.5 63.5 80 57.2 1 SE 4 E 63.5 63.8 29.871 0 0 0.005 0
6/1/18 7:00 63.6 63.6 63.5 80 57.3 2 ESE 5 ESE 63.6 63.9 29.875 0 0 0.005 0
6/1/18 7:05 63.7 63.8 63.6 80 57.4 3 SE 5 ESE 63.7 64 29.874 0 0 0.005 0
6/1/18 7:10 63.8 63.8 63.7 80 57.5 3 ESE 6 SSE 63.8 64.2 29.882 0 0 0.004 0
6/1/18 7:15 63.9 64 63.8 80 57.6 3 SE 5 SSE 63.9 64.3 29.888 0 0 0.004 0
6/1/18 7:20 64 64 63.9 80 57.7 2 SE 4 SSE 64 64.4 29.905 0 0 0.003 0
6/1/18 7:25 64.1 64.1 64 80 57.8 2 SE 4 SE 64.1 64.5 29.909 0 0 0.003 0
6/1/18 7:30 64.1 64.2 64.1 80 57.8 1 SE 3 ESE 64.1 64.5 29.916 0 0 0.003 0
6/1/18 7:35 64.1 64.2 64.1 80 57.8 1 ESE 2 SE 64.1 64.5 29.916 0 0 0.003 0
6/1/18 7:40 64.3 64.3 64.1 79 57.6 2 SE 3 SE 64.3 64.6 29.915 0 0 0.002 0
6/1/18 7:45 64.3 64.4 64.3 79 57.6 1 ESE 3 ESE 64.3 64.6 29.914 0 0 0.002 0
6/1/18 7:50 64.3 64.3 64.3 79 57.6 1 SSE 4 SSE 64.3 64.6 29.92 0 0 0.002 0
6/1/18 7:55 64.6 64.6 64.3 79 57.9 1 ESE 3 SE 64.6 65 29.925 0 0 0.001 0
6/1/18 8:00 64.6 64.7 64.5 79 57.9 0 -- 3 SSW 64.6 65 29.928 0 0 0.001 0
6/1/18 8:05 64.9 64.9 64.7 79 58.2 0 -- 1 S 64.9 65.3 29.925 0 0 0 0
6/1/18 8:10 65.1 65.1 64.8 79 58.4 0 -- 1 S 65.1 65.5 29.92 0 0 0 0
6/1/18 8:15 65.1 65.2 65 79 58.4 1 S 3 S 65.1 65.5 29.922 0 0 0 0
6/1/18 8:20 65.1 65.3 65.1 77 57.7 1 SSE 2 SSE 65.1 65.4 29.919 0 0 0 0
6/1/18 8:25 65.2 65.2 65.1 78 58.2 0 -- 2 SSE 65.2 65.6 29.915 0 0 0 0.001
6/1/18 8:30 65.4 65.4 65.2 77 58 1 SSE 3 SE 65.4 65.8 29.905 0 0 0 0.001
6/1/18 8:35 65.6 65.6 65.4 77 58.2 0 -- 1 SE 65.6 66 29.9 0 0 0 0.002
6/1/18 8:40 66.2 66.2 65.5 77 58.8 1 SE 3 SE 66.2 66.7 29.889 0 0 0 0.004
6/1/18 8:45 66.6 66.6 66.2 76 58.8 2 E 6 ESE 66.6 67.1 29.876 0 0 0 0.006
6/1/18 8:50 66.7 66.7 66.5 76 58.9 3 ESE 7 E 66.7 67.2 29.862 0 0 0 0.006
6/1/18 8:55 67.3 67.3 66.7 75 59.1 4 ESE 7 ESE 67.3 67.9 29.853 0 0 0 0.008
6/1/18 9:00 67.7 67.7 67.3 74 59.1 5 ESE 9 SE 67.7 68.3 29.844 0 0 0 0.009
6/1/18 9:05 67.4 67.6 67.4 74 58.8 4 SE 9 SSE 67.4 67.9 29.841 0 0 0 0.008
6/1/18 9:10 67.3 67.4 67.3 74 58.7 4 ESE 9 ESE 67.3 67.8 29.848 0 0 0 0.008
6/1/18 9:15 67.4 67.5 67.3 74 58.8 3 ESE 7 ESE 67.4 67.9 29.867 0 0 0 0.008
6/1/18 9:20 67.8 67.8 67.5 73 58.8 4 SSE 10 E 67.8 68.3 29.867 0 0 0 0.01
6/1/18 9:25 68.1 68.1 67.7 72 58.7 5 ESE 12 S 68.1 68.6 29.858 0 0 0 0.011
6/1/18 9:30 68.4 68.4 68.1 71 58.6 7 SE 15 ESE 68.4 68.9 29.838 0 0 0 0.012
6/1/18 9:35 68.3 68.4 68.3 71 58.5 5 SE 15 ESE 68.3 68.7 29.846 0 0 0 0.011
6/1/18 9:40 68.9 68.9 68.3 70 58.7 6 SE 16 SE 68.9 69.4 29.851 0 0 0 0.014
6/1/18 9:45 69 69.1 68.9 69 58.4 6 SE 11 E 69 69.4 29.837 0 0 0 0.014
6/1/18 9:50 69.2 69.2 69 70 59 5 ESE 14 ESE 69.2 69.6 29.847 0 0 0 0.015
6/1/18 9:55 69.3 69.4 69.2 69 58.7 4 SE 8 SSE 69.3 69.6 29.854 0 0 0 0.015
6/1/18 10:00 70.1 70.1 69.3 70 59.9 5 SE 10 ENE 70.1 70.3 29.85 0 0 0 0.018
6/1/18 10:05 71.4 71.4 70.3 67 59.9 6 SE 10 ESE 71.4 71.6 29.854 0 0 0 0.022
6/1/18 10:10 71.8 71.8 71.5 66 59.8 8 SSE 19 SE 71.3 72 29.852 0 0 0 0.024
6/1/18 10:15 72.1 72.1 71.8 65 59.7 9 SSE 19 SE 70.7 72.3 29.85 0 0 0 0.025
6/1/18 10:20 73.1 73.1 72.1 63 59.8 7 SSE 15 SSE 73.1 73.6 29.851 0 0 0 0.028
6/1/18 10:25 72.6 73.3 72.6 63 59.3 10 SSE 20 S 70.5 72.9 29.855 0 0 0 0.026
6/1/18 10:30 72.3 72.6 72.3 62 58.5 9 SSE 18 SSE 70.9 72.4 29.857 0 0 0 0.025
6/1/18 10:35 72.4 72.6 72.1 64 59.5 7 SSE 17 S 72.4 72.7 29.858 0 0 0 0.026
6/1/18 10:40 72.9 72.9 72.5 62 59.1 7 SSE 13 SSE 72.9 73.2 29.856 0 0 0 0.027
6/1/18 10:45 73.1 73.2 72.9 63 59.8 7 SSE 12 SE 73.1 73.6 29.861 0 0 0 0.028
6/1/18 10:50 73.2 73.4 73.1 61 58.9 7 SE 13 ESE 73.2 73.5 29.861 0 0 0 0.028
6/1/18 10:55 72.5 73.2 72.3 63 59.2 7 SSE 13 SSE 72.5 72.8 29.857 0 0 0 0.026
6/1/18 11:00 73.8 73.8 72.6 62 60 9 SSE 17 SE 72.5 74.3 29.86 0 0 0 0.031
6/1/18 11:05 73.4 73.9 73.3 62 59.6 9 SSE 16 SSE 72 73.8 29.861 0 0 0 0.029
6/1/18 11:10 74.5 74.5 73.4 62 60.6 6 SE 12 E 74.5 75.1 29.862 0 0 0 0.033
6/1/18 11:15 74.1 74.6 74.1 60 59.3 6 ESE 12 SSE 74.1 74.5 29.865 0 0 0 0.032
6/1/18 11:20 74.6 74.6 74 62 60.7 9 SSE 18 SSE 73.3 75.2 29.864 0 0 0 0.033
6/1/18 11:25 75.3 75.4 74.6 59 60 7 SSE 15 SSE 75.3 75.7 29.872 0 0 0 0.036
6/1/18 11:30 74.9 75.2 74.9 60 60.1 5 SSE 14 SSE 74.9 75.3 29.872 0 0 0 0.034
6/1/18 11:35 74.8 75 74.4 60 60 8 SSE 17 S 74.3 75.2 29.868 0 0 0 0.034
6/1/18 11:40 74.6 75 74.4 61 60.3 7 SSE 15 SSE 74.6 75.1 29.867 0 0 0 0.033
6/1/18 11:45 75.1 75.3 74.6 60 60.3 5 ESE 12 ESE 75.1 75.5 29.867 0 0 0 0.035
6/1/18 11:50 74.6 75.4 74.6 60 59.8 7 SE 14 SE 74.6 75 29.863 0 0 0 0.033
6/1/18 11:55 75.1 75.1 74.7 61 60.7 7 ESE 14 ESE 75.1 75.6 29.861 0 0 0 0.035
6/1/18 12:00 75.1 75.7 75 59 59.8 6 SE 11 E 75.1 75.5 29.858 0 0 0 0.035
6/1/18 12:05 76.9 76.9 75 58 61 5 ESE 10 ESE 76.9 77.3 29.854 0 0 0 0.041
6/1/18 12:10 77 77.2 76.7 58 61.1 7 ESE 13 SE 77 77.4 29.857 0 0 0 0.042
6/1/18 12:15 77.4 77.4 76.9 57 61 5 ESE 9 ESE 77.4 77.8 29.853 0 0 0 0.043
6/1/18 12:20 77.1 77.6 77.1 57 60.7 6 E 11 SE 77.1 77.4 29.855 0 0 0 0.042
6/1/18 12:25 76.7 77.1 76.7 59 61.3 6 ESE 11 S 76.7 77.1 29.86 0 0 0 0.041
6/1/18 12:30 76.9 76.9 76.7 59 61.5 5 ESE 10 ESE 76.9 77.3 29.861 0 0 0 0.041
6/1/18 12:35 77.6 77.6 76.8 59 62.1 6 ESE 10 E 77.6 78.1 29.86 0 0 0 0.044
6/1/18 12:40 78.3 78.3 77.5 55 60.8 5 ESE 9 ESE 78.3 78.7 29.859 0 0 0 0.046
6/1/18 12:45 78.1 78.3 78 55 60.6 5 E 9 ENE 78.1 78.4 29.854 0 0 0 0.045
6/1/18 12:50 77.2 78 77.2 56 60.3 5 SE 9 SSE 77.2 77.5 29.852 0 0 0 0.042
6/1/18 12:55 77.6 77.6 76.9 57 61.2 5 ESE 9 ESE 77.6 78 29.849 0 0 0 0.044
6/1/18 13:00 78.1 78.4 77.7 56 61.1 5 ESE 10 SE 78.1 78.5 29.846 0 0 0 0.045
6/1/18 13:05 78 78.3 77.8 56 61 4 ESE 9 ENE 78 78.4 29.849 0 0 0 0.045
6/1/18 13:10 78.3 78.3 77.8 56 61.3 6 ESE 11 E 78.3 78.7 29.851 0 0 0 0.046
6/1/18 13:15 77.7 78.2 77.6 57 61.3 5 ESE 9 E 77.7 78.1 29.846 0 0 0 0.044
6/1/18 13:20 78.9 78.9 77.8 54 60.8 6 ESE 11 E 78.9 79.3 29.841 0 0 0 0.048
6/1/18 13:25 79.2 79.2 78.8 54 61.1 5 ESE 8 E 79.2 79.6 29.839 0 0 0 0.049
6/1/18 13:30 79.6 79.8 79.3 53 61 7 ESE 10 ESE 79.6 80 29.842 0 0 0 0.051
6/1/18 13:35 79.1 79.9 79.1 52 60 6 ESE 11 E 79.1 79.3 29.842 0 0 0 0.049
6/1/18 13:40 79.4 79.6 79.1 52 60.2 5 E 12 SE 79.4 79.7 29.844 0 0 0 0.05
6/1/18 13:45 79.5 80.2 79.1 52 60.3 6 ESE 9 E 79.5 79.8 29.846 0 0 0 0.05
6/1/18 13:50 79.6 79.6 79.1 54 61.5 4 E 9 ESE 79.6 80.1 29.848 0 0 0 0.051
6/1/18 13:55 79.9 80.4 79.7 51 60.2 6 ESE 10 E 79.9 80.2 29.85 0 0 0 0.052
6/1/18 14:00 79.6 80.2 79.6 51 59.9 5 E 12 SE 79.6 79.8 29.85 0 0 0 0.051
6/1/18 14:05 80 80 79.1 53 61.3 5 ESE 11 S 80 80.5 29.846 0 0 0 0.052
6/1/18 14:10 80.1 80.6 80.1 51 60.3 7 E 12 SSE 80.1 80.4 29.84 0 0 0 0.052
6/1/18 14:15 79 80.1 79 52 59.9 5 ESE 10 SE 79 79.2 29.839 0 0 0 0.049
6/1/18 14:20 79.4 79.5 78.9 51 59.7 6 ESE 11 SSE 79.4 79.6 29.838 0 0 0 0.05
6/1/18 14:25 80.5 80.6 79.4 51 60.7 6 ESE 11 E 80.5 80.9 29.832 0 0 0 0.054
6/1/18 14:30 80.2 80.5 80.1 49 59.3 6 SE 13 SE 80.2 80.3 29.822 0 0 0 0.053
6/1/18 14:35 81.4 81.4 80.2 48 59.8 6 ESE 11 ESE 81.4 81.5 29.818 0 0 0 0.057
6/1/18 14:40 81.6 81.6 81 51 61.7 6 ESE 10 SE 81.6 82.2 29.818 0 0 0 0.058
6/1/18 14:45 81.3 81.6 81.3 50 60.9 5 ESE 11 SE 81.3 81.7 29.819 0 0 0 0.057
6/1/18 14:50 80.8 81.5 80.8 50 60.4 7 SSE 13 SSE 80.8 81.1 29.819 0 0 0 0.055
6/1/18 14:55 82.7 83.2 80.9 45 59.2 7 ESE 15 E 82.7 82.5 29.817 0 0 0 0.061
6/1/18 15:00 82.2 82.6 82.1 47 60 6 ESE 10 ENE 82.2 82.3 29.82 0 0 0 0.06
6/1/18 15:05 80.9 82.3 80.9 48 59.4 6 SE 11 SE 80.9 80.9 29.823 0 0 0 0.055
6/1/18 15:10 79.6 81 79.6 49 58.8 6 SE 11 SSE 79.6 79.6 29.825 0 0 0 0.051
6/1/18 15:15 80.6 80.8 79.5 46 57.9 7 ESE 13 ESE 80.6 80.2 29.822 0 0 0 0.054
6/1/18 15:20 80.7 80.7 80 49 59.8 6 ESE 12 SE 80.7 80.8 29.813 0 0 0 0.055
6/1/18 15:25 82.4 82.6 80.9 46 59.5 5 ESE 12 SE 82.4 82.3 29.802 0 0 0 0.06
6/1/18 15:30 82.7 82.8 82.4 45 59.2 6 ESE 10 E 82.7 82.5 29.805 0 0 0 0.061
6/1/18 15:35 81.8 83 81.8 46 59 6 SE 13 SSE 81.8 81.6 29.804 0 0 0 0.058
6/1/18 15:40 80.9 81.7 80.9 49 59.9 6 ESE 10 SE 80.9 81 29.804 0 0 0 0.055
6/1/18 15:45 79.6 80.8 79.6 50 59.3 5 ESE 8 E 79.6 79.7 29.807 0 0 0 0.051
6/1/18 15:50 79.4 79.6 79.4 50 59.1 6 SE 15 E 79.4 79.5 29.806 0 0 0 0.05
6/1/18 15:55 79.6 79.6 79.1 50 59.3 6 ESE 11 SE 79.6 79.7 29.803 0 0 0 0.051
6/1/18 16:00 80.3 80.3 79.6 50 60 6 ESE 10 SE 80.3 80.5 29.797 0 0 0 0.053
6/1/18 16:05 80 80.8 80 48 58.5 6 ESE 11 ESE 80 79.9 29.8 0 0 0 0.052
6/1/18 16:10 79.6 80 79.6 50 59.3 6 ESE 12 SE 79.6 79.7 29.8 0 0 0 0.051
6/1/18 16:15 79.9 79.9 79.4 50 59.6 5 ESE 9 ESE 79.9 80.1 29.8 0 0 0 0.052
6/1/18 16:20 79.6 80 79.6 50 59.3 5 ESE 10 E 79.6 79.7 29.802 0 0 0 0.051
6/1/18 16:25 79.5 79.6 79.4 51 59.8 5 ESE 9 SE 79.5 79.7 29.8 0 0 0 0.05
6/1/18 16:30 80.4 80.4 79.5 49 59.5 6 ESE 11 ESE 80.4 80.5 29.8 0 0 0 0.053
6/1/18 16:35 80 80.4 79.9 50 59.7 6 ESE 11 ESE 80 80.2 29.802 0 0 0 0.052
6/1/18 16:40 80.7 80.7 80 50 60.3 6 ESE 11 SE 80.7 81 29.8 0 0 0 0.055
6/1/18 16:45 79.8 80.8 79.8 50 59.5 7 ESE 12 ESE 79.8 80 29.8 0 0 0 0.051
6/1/18 16:50 78.8 79.8 78.8 50 58.6 6 ESE 9 ESE 78.8 78.8 29.796 0 0 0 0.048
6/1/18 16:55 79.8 79.8 78.6 51 60.1 8 ESE 11 E 79.4 80.1 29.793 0 0 0 0.051
6/1/18 17:00 80.7 80.7 79.8 50 60.3 7 ESE 12 ESE 80.7 81 29.795 0 0 0 0.055
6/1/18 17:05 80.9 80.9 80.6 50 60.5 7 ESE 12 E 80.9 81.2 29.793 0 0 0 0.055
6/1/18 17:10 81.2 81.3 80.9 49 60.2 7 E 11 ESE 81.2 81.4 29.794 0 0 0 0.056
6/1/18 17:15 79.9 81.2 79.8 49 59 8 ESE 12 ESE 79.5 79.9 29.793 0 0 0 0.052
6/1/18 17:20 78.1 79.8 78.1 51 58.5 7 ESE 13 SSE 78.1 78.2 29.79 0 0 0 0.045
6/1/18 17:25 77.6 78.1 77.5 53 59.1 8 ESE 13 SE 77.1 77.7 29.788 0 0 0 0.044
6/1/18 17:30 78.8 78.8 77.6 53 60.2 6 ESE 9 ESE 78.8 79.1 29.789 0 0 0 0.048
6/1/18 17:35 78.9 79.1 78.8 51 59.2 7 ESE 11 ESE 78.9 79 29.789 0 0 0 0.048
6/1/18 17:40 79.2 79.3 78.8 51 59.5 7 ESE 11 SE 79.2 79.3 29.785 0 0 0 0.049
6/1/18 17:45 79.6 79.8 79.3 50 59.3 6 ESE 10 E 79.6 79.7 29.784 0 0 0 0.051
6/1/18 17:50 79.9 79.9 79.6 49 59 7 ESE 13 ESE 79.9 79.9 29.78 0 0 0 0.052
6/1/18 17:55 80.1 80.2 79.9 49 59.2 7 ESE 14 SSE 80.1 80.2 29.776 0 0 0 0.052
6/1/18 18:00 80.3 80.3 79.8 49 59.4 7 ESE 15 E 80.3 80.4 29.77 0 0 0 0.053
6/1/18 18:05 79.8 80.3 79.7 50 59.5 7 ESE 12 SSE 79.8 80 29.766 0 0 0 0.051
6/1/18 18:10 79.6 79.9 79.6 49 58.8 7 ESE 12 SE 79.6 79.6 29.765 0 0 0 0.051
6/1/18 18:15 79.6 79.6 79.5 49 58.8 8 ESE 12 ESE 79.2 79.6 29.758 0 0 0 0.051
6/1/18 18:20 79.1 79.6 79.1 50 58.9 9 ESE 14 E 78 79.1 29.751 0 0 0 0.049
6/1/18 18:25 78.7 79 78.7 50 58.5 7 ESE 11 E 78.7 78.7 29.745 0 0 0 0.048
6/1/18 18:30 78.7 78.9 78.7 50 58.5 8 ESE 11 SE 78.3 78.7 29.738 0 0 0 0.048
6/1/18 18:35 78.4 78.8 78.3 50 58.2 8 ESE 13 SE 77.9 78.4 29.731 0 0 0 0.047
6/1/18 18:40 78 78.4 78 50 57.9 8 ESE 13 ESE 77.5 78 29.732 0 0 0 0.045
6/1/18 18:45 77.3 78.1 77.3 51 57.8 7 ESE 15 SE 77.3 77.3 29.737 0 0 0 0.043
6/1/18 18:50 77.4 77.4 77.3 52 58.4 7 ESE 12 E 77.4 77.5 29.733 0 0 0 0.043
6/1/18 18:55 77.3 77.4 77.3 52 58.3 8 ESE 14 ESE 76.8 77.4 29.731 0 0 0 0.043
6/1/18 19:00 77.4 77.4 77.3 51 57.9 8 ESE 19 SE 76.9 77.4 29.732 0 0 0 0.043
6/1/18 19:05 77 77.4 77 52 58 8 ESE 14 ESE 76.5 77 29.735 0 0 0 0.042
6/1/18 19:10 76.6 77 76.6 52 57.7 8 ESE 12 ESE 76.1 76.6 29.735 0 0 0 0.04
6/1/18 19:15 76.2 76.6 76.2 52 57.3 7 ESE 12 ESE 76.2 76.2 29.745 0 0 0 0.039
6/1/18 19:20 75.9 76.2 75.9 53 57.5 7 ESE 13 E 75.9 76 29.742 0 0 0 0.038
6/1/18 19:25 75.8 75.9 75.7 53 57.4 6 ESE 13 ESE 75.8 75.9 29.739 0 0 0 0.038
6/1/18 19:30 75.5 75.7 75.5 53 57.2 8 ESE 15 SE 75 75.6 29.728 0 0 0 0.036
6/1/18 19:35 75.1 75.5 75.1 54 57.3 7 ESE 12 ESE 75.1 75.2 29.723 0 0 0 0.035
6/1/18 19:40 74.9 75.1 74.9 54 57.1 8 ESE 13 ESE 74.4 75 29.719 0 0 0 0.034
6/1/18 19:45 74.7 74.9 74.7 54 56.9 7 ESE 13 ESE 74.7 74.8 29.713 0 0 0 0.034
6/1/18 19:50 74.3 74.6 74.3 54 56.6 8 ESE 14 ESE 73.8 74.4 29.708 0 0 0 0.032
6/1/18 19:55 74 74.3 74 54 56.3 9 ESE 15 E 72.7 74 29.7 0 0 0 0.031
6/1/18 20:00 73.7 74 73.7 54 56 8 ESE 14 ESE 73.2 73.7 29.707 0 0 0 0.03
6/1/18 20:05 73.5 73.7 73.5 55 56.3 7 ESE 11 E 73.5 73.5 29.711 0 0 0 0.03
6/1/18 20:10 73.2 73.5 73.2 55 56.1 8 ESE 15 ESE 72.7 73.1 29.715 0 0 0 0.028
6/1/18 20:15 72.2 73.2 72.2 59 57.1 6 ESE 13 ESE 72.2 72.1 29.716 0 0 0 0.025
6/1/18 20:20 71.2 72.1 71.2 59 56.1 8 ESE 13 SE 70.7 70.8 29.711 0 0 0 0.022
6/1/18 20:25 71 71.2 71 58 55.5 7 ESE 11 ESE 71 70.4 29.713 0 0 0 0.021
6/1/18 20:30 70.8 71 70.8 59 55.8 7 ESE 14 E 70.8 70.3 29.714 0 0 0 0.02
6/1/18 20:35 70.7 70.8 70.7 58 55.2 8 ESE 17 SE 70.2 70 29.715 0 0 0 0.02
6/1/18 20:40 70.6 70.7 70.6 58 55.1 6 ESE 10 ESE 70.6 69.9 29.714 0 0 0 0.019
6/1/18 20:45 70.4 70.6 70.4 59 55.4 7 ESE 13 E 70.4 69.8 29.718 0 0 0 0.019
6/1/18 20:50 70.4 70.5 70.4 59 55.4 7 ESE 16 ESE 70.4 69.8 29.725 0 0 0 0.019
6/1/18 20:55 70.3 70.4 70.3 59 55.3 6 ESE 10 SE 70.3 69.7 29.724 0 0 0 0.018
6/1/18 21:00 70 70.3 70 59 55 7 ESE 12 ESE 70 69.3 29.727 0 0 0 0.017
6/1/18 21:05 69.8 70 69.8 59 54.8 8 ESE 16 ESE 69.3 69.1 29.731 0 0 0 0.017
6/1/18 21:10 69.6 69.8 69.6 60 55.1 7 ESE 13 ESE 69.6 69.1 29.733 0 0 0 0.016
6/1/18 21:15 69.4 69.6 69.4 60 54.9 6 ESE 10 E 69.4 68.9 29.733 0 0 0 0.015
6/1/18 21:20 69.2 69.5 69.2 60 54.7 8 ESE 19 ESE 68.5 68.8 29.728 0 0 0 0.015
6/1/18 21:25 69.1 69.3 69.1 60 54.6 6 ESE 13 SE 69.1 68.7 29.732 0 0 0 0.014
6/1/18 21:30 69 69.2 69 60 54.5 6 ESE 11 ESE 69 68.6 29.735 0 0 0 0.014
6/1/18 21:35 68.8 68.9 68.7 60 54.3 6 ESE 10 SE 68.8 68.4 29.732 0 0 0 0.013
6/1/18 21:40 68.5 68.8 68.5 60 54.1 7 ESE 12 ESE 68.5 68.1 29.737 0 0 0 0.012
6/1/18 21:45 68.3 68.6 68.3 60 53.9 7 ESE 14 E 68.3 67.8 29.738 0 0 0 0.011
6/1/18 21:50 68.1 68.3 68.1 60 53.7 7 ESE 11 ESE 68.1 67.6 29.736 0 0 0 0.011
6/1/18 21:55 67.8 68.1 67.8 60 53.4 8 ESE 15 SE 67.1 67.3 29.73 0 0 0 0.01
6/1/18 22:00 67.6 67.9 67.6 60 53.2 8 ESE 15 SSE 66.9 67 29.734 0 0 0 0.009
6/1/18 22:05 67.1 67.6 67.1 63 54.1 9 ESE 16 ESE 65.8 66.7 29.731 0 0 0 0.007
6/1/18 22:10 65.7 67 65.7 68 54.8 7 ESE 17 ESE 65.7 65.4 29.726 0 0 0 0.002
6/1/18 22:15 64.6 65.7 64.6 70 54.6 7 ESE 15 SE 64.6 64.3 29.726 0.01 0.13 0.001 0
6/1/18 22:20 64.1 64.6 64.1 70 54.1 7 ESE 18 SSE 64.1 63.7 29.728 0.01 0.13 0.003 0
6/1/18 22:25 64 64.1 64 70 54 8 ESE 15 ESE 63.2 63.6 29.728 0 0.06 0.003 0
6/1/18 22:30 63.8 64 63.8 70 53.8 7 SE 14 E 63.8 63.4 29.734 0 0.04 0.004 0
6/1/18 22:35 63.8 63.9 63.8 69 53.4 7 ESE 14 ESE 63.8 63.3 29.728 0 0 0.004 0
6/1/18 22:40 63.7 63.8 63.7 70 53.7 7 SE 14 SSE 63.7 63.3 29.734 0 0 0.005 0
6/1/18 22:45 63.6 63.7 63.6 70 53.6 6 SE 11 SSE 63.6 63.2 29.733 0 0 0.005 0
6/1/18 22:50 63.5 63.6 63.5 70 53.5 6 SE 17 ESE 63.5 63 29.731 0 0 0.005 0
6/1/18 22:55 63.5 63.5 63.5 70 53.5 7 SE 12 S 63.5 63 29.734 0 0 0.005 0
6/1/18 23:00 63.5 63.5 63.4 69 53.1 8 ESE 16 SSE 62.7 63 29.732 0 0 0.005 0
6/1/18 23:05 63.2 63.5 63.2 69 52.9 7 ESE 17 SSE 63.1 62.7 29.73 0 0 0.006 0
6/1/18 23:10 63 63.2 62.9 69 52.7 7 SE 15 ESE 62.9 62.4 29.736 0 0 0.007 0
6/1/18 23:15 62.7 62.9 62.7 69 52.4 7 SE 14 SSE 62.5 62.1 29.742 0 0 0.008 0
6/1/18 23:20 62.5 62.8 62.5 70 52.6 7 SE 16 SE 62.3 61.9 29.75 0 0 0.009 0
6/1/18 23:25 62.4 62.5 62.4 70 52.5 7 SSE 12 SE 62.2 61.8 29.755 0 0 0.009 0
6/1/18 23:30 62.4 62.5 62.3 70 52.5 7 SSE 12 SSE 62.2 61.8 29.759 0 0 0.009 0
6/1/18 23:35 62.4 62.6 62.4 71 52.9 9 SSE 16 SSE 60.5 61.9 29.768 0.01 0 0.009 0
6/1/18 23:40 61.5 62.4 61.5 74 53.1 6 SSE 14 SSE 61.4 61.1 29.765 0.02 0.37 0.012 0
6/1/18 23:45 60.7 61.5 60.7 77 53.4 5 SSE 10 SSE 60.7 60.4 29.769 0.01 0.96 0.015 0
6/1/18 23:50 60.4 60.7 60.3 77 53.2 6 S 18 S 60.1 60.1 29.803 0.01 0.13 0.016 0
6/1/18 23:55 60.2 60.4 60.2 79 53.7 4 SSE 15 S 60.2 60 29.811 0 0.08 0.017 0
6/2/18 0:00 60 60.2 59.9 78 53.1 7 SSE 14 SSE 59.2 59.7 29.798 0 0.05 0.017 0
6/2/18 0:05 59.8 59.9 59.8 78 52.9 6 SSE 13 S 59.4 59.5 29.816 0.01 0.05 0.018 0
6/2/18 0:10 59.6 59.9 59.6 78 52.7 10 SSE 27 SE 56.5 59.3 29.818 0.07 2.73 0.019 0
6/2/18 0:15 59.2 59.6 59.2 79 52.7 9 SSE 18 SE 56.7 58.9 29.81 0.01 2.33 0.02 0
6/2/18 0:20 59 59.2 59 80 52.8 9 SSE 21 SSE 56.5 58.8 29.808 0.02 0.42 0.021 0
6/2/18 0:25 58.6 59 58.6 81 52.8 10 SSE 20 SSE 55.3 58.4 29.811 0.03 0.49 0.022 0
6/2/18 0:30 58.3 58.6 58.3 81 52.5 10 SSE 19 SSE 55 58.1 29.801 0 0.09 0.023 0
6/2/18 0:35 58.3 58.3 58.2 82 52.8 10 SSE 20 SSE 55 58.1 29.799 0 0.05 0.023 0
6/2/18 0:40 58.4 58.4 58.3 82 52.9 10 SSE 18 ESE 55.1 58.2 29.797 0 0.04 0.023 0
6/2/18 0:45 58.3 58.4 58.3 82 52.8 10 SSE 21 SSE 55 58.1 29.794 0 0 0.023 0
6/2/18 0:50 58.1 58.3 58.1 82 52.6 10 SSE 18 SE 54.7 57.9 29.79 0.01 0 0.024 0
6/2/18 0:55 58 58.1 58 82 52.5 9 SSE 18 SSE 55.3 57.8 29.791 0 0 0.024 0
6/2/18 1:00 57.8 58 57.8 82 52.3 8 SSE 14 SSE 55.9 57.6 29.789 0.02 0.16 0.025 0
6/2/18 1:05 57.6 57.8 57.5 82 52.1 7 SE 18 SE 56.3 57.4 29.782 0.01 0.16 0.026 0
6/2/18 1:10 57.4 57.5 57.4 83 52.3 7 SE 15 SSE 56.1 57.2 29.783 0.02 0.2 0.026 0
6/2/18 1:15 57.2 57.4 57.2 83 52.1 8 SE 18 ESE 55.1 57 29.777 0.01 0.2 0.027 0
6/2/18 1:20 57.1 57.2 57.1 83 52 7 SE 18 SE 55.7 56.9 29.775 0.02 0.28 0.027 0
6/2/18 1:25 57 57.1 57 83 51.9 7 SE 14 SE 55.6 56.8 29.768 0.02 0.25 0.028 0
6/2/18 1:30 57 57.1 56.9 83 51.9 6 SE 10 SE 56 56.8 29.764 0.01 0.18 0.028 0
6/2/18 1:35 57.2 57.2 57 83 52.1 7 SE 15 SE 55.8 57 29.748 0.02 0.22 0.027 0
6/2/18 1:40 57.3 57.3 57.1 84 52.5 8 SE 14 ESE 55.3 57.1 29.737 0.02 0.21 0.027 0
6/2/18 1:45 57.5 57.5 57.3 84 52.7 7 SE 16 SSE 56.2 57.3 29.736 0.01 0.21 0.026 0
6/2/18 1:50 57.7 57.7 57.5 84 52.9 8 ESE 17 ESE 55.7 57.5 29.741 0.01 0.18 0.025 0
6/2/18 1:55 57.8 57.8 57.7 84 53 7 SE 18 ENE 56.6 57.6 29.743 0.01 0.13 0.025 0
6/2/18 2:00 57.9 57.9 57.8 84 53.1 8 SE 16 SSE 56 57.8 29.736 0.01 0.15 0.025 0
6/2/18 2:05 58 58 57.9 84 53.2 6 ESE 16 SE 57.2 57.9 29.736 0.02 0.19 0.024 0
6/2/18 2:10 58 58 57.9 85 53.5 7 SE 12 SE 56.8 57.9 29.732 0.01 0.23 0.024 0
6/2/18 2:15 58.1 58.1 58 85 53.6 8 ESE 13 E 56.2 58 29.719 0.01 0.15 0.024 0
6/2/18 2:20 58.2 58.2 58.1 85 53.7 9 ESE 16 SE 55.5 58.1 29.713 0.01 0.11 0.024 0
6/2/18 2:25 58.2 58.3 58.2 85 53.7 9 SE 16 ESE 55.5 58.1 29.708 0 0.08 0.024 0
6/2/18 2:30 58.3 58.3 58.2 85 53.8 11 ESE 21 SE 54.4 58.2 29.69 0 0.05 0.023 0
6/2/18 2:35 58.4 58.5 58.3 85 53.9 10 ESE 17 SE 55.1 58.3 29.693 0 0 0.023 0
6/2/18 2:40 58.6 58.6 58.4 85 54.1 10 SSE 15 SSE 55.3 58.5 29.713 0 0 0.022 0
6/2/18 2:45 58.6 58.6 58.5 85 54.1 9 SSE 17 SSE 56 58.5 29.763 0 0 0.022 0
6/2/18 2:50 58.8 58.8 58.6 85 54.3 9 SSE 20 SSE 56.3 58.7 29.745 0 0 0.022 0
6/2/18 2:55 59.1 59.1 58.8 84 54.3 11 SSE 24 S 55.3 59 29.746 0 0 0.02 0
6/2/18 3:00 59.2 59.2 59.1 84 54.4 8 SE 15 ESE 57.5 59.1 29.733 0 0 0.02 0
6/2/18 3:05 59.3 59.3 59.2 84 54.5 7 SSE 12 SSE 58.4 59.2 29.73 0 0 0.02 0
6/2/18 3:10 59.4 59.4 59.3 84 54.6 7 SSE 12 SSE 58.5 59.3 29.741 0 0 0.019 0
6/2/18 3:15 59.5 59.5 59.4 84 54.7 7 SSE 12 SE 58.6 59.4 29.736 0 0 0.019 0
6/2/18 3:20 59.6 59.6 59.5 84 54.8 8 SSE 17 SSE 58 59.5 29.727 0 0 0.019 0
6/2/18 3:25 59.6 59.7 59.6 83 54.4 6 SSE 10 S 59.1 59.5 29.726 0 0 0.019 0
6/2/18 3:30 59.6 59.7 59.6 83 54.4 7 SE 12 SE 58.7 59.5 29.716 0 0 0.019 0
6/2/18 3:35 59.7 59.7 59.6 83 54.5 5 SSE 14 SSE 59.6 59.6 29.715 0 0 0.018 0
6/2/18 3:40 59.7 59.7 59.6 83 54.5 5 SSE 9 SSE 59.6 59.6 29.717 0 0 0.018 0
6/2/18 3:45 59.7 59.7 59.7 83 54.5 6 SE 14 SSE 59.2 59.6 29.708 0 0 0.018 0
6/2/18 3:50 59.9 59.9 59.7 82 54.4 4 SSE 9 S 59.9 59.8 29.712 0 0 0.018 0
6/2/18 3:55 59.9 59.9 59.8 82 54.4 3 SSE 6 ESE 59.9 59.8 29.708 0 0 0.018 0
6/2/18 4:00 60 60 59.9 82 54.5 4 SSE 7 SSE 60 59.9 29.707 0 0 0.017 0
6/2/18 4:05 59.8 60 59.8 82 54.3 2 S 6 S 59.8 59.7 29.707 0 0 0.018 0
6/2/18 4:10 59.8 59.9 59.8 83 54.6 2 S 5 SSW 59.8 59.7 29.705 0 0 0.018 0
6/2/18 4:15 59.6 59.7 59.5 83 54.4 2 SSE 6 SSE 59.6 59.5 29.716 0 0 0.019 0
6/2/18 4:20 59.8 59.8 59.5 83 54.6 3 SSE 5 S 59.8 59.7 29.719 0 0 0.018 0
6/2/18 4:25 59.9 59.9 59.8 83 54.7 3 S 9 SSE 59.9 59.8 29.724 0 0 0.018 0
6/2/18 4:30 60 60.1 59.9 83 54.8 3 SSE 12 SSE 60 59.9 29.729 0 0 0.017 0
6/2/18 4:35 60 60.1 60 83 54.8 3 SSE 6 SSE 60 59.9 29.736 0 0 0.017 0
6/2/18 4:40 60.2 60.2 60 83 55 3 S 7 SSW 60.2 60.1 29.744 0 0 0.017 0
6/2/18 4:45 60.4 60.4 60.2 83 55.2 4 S 12 SSW 60.4 60.4 29.752 0 0 0.016 0
6/2/18 4:50 60.6 60.6 60.4 83 55.4 5 SSE 12 SSE 60.6 60.6 29.754 0 0 0.015 0
6/2/18 4:55 60.5 60.6 60.5 83 55.3 4 SSE 9 SSE 60.5 60.5 29.75 0 0 0.016 0
6/2/18 5:00 60.2 60.5 60.2 82 54.7 3 SSE 7 S 60.2 60.1 29.745 0 0 0.017 0
6/2/18 5:05 60 60.2 60 82 54.5 5 SSE 9 SW 60 59.9 29.743 0 0 0.017 0
6/2/18 5:10 59.7 60 59.7 82 54.2 4 SSE 8 SSE 59.7 59.6 29.741 0 0 0.018 0
6/2/18 5:15 59.5 59.8 59.5 81 53.7 5 SSE 11 SSE 59.4 59.3 29.744 0 0 0.019 0
6/2/18 5:20 59.3 59.5 59.3 82 53.8 5 SSE 8 SSE 59.2 59.2 29.731 0 0 0.02 0
6/2/18 5:25 59.2 59.3 59.2 82 53.7 4 SSE 9 SSE 59.2 59 29.741 0 0 0.02 0
6/2/18 5:30 59.2 59.2 59.1 83 54 4 SSE 10 SSE 59.2 59.1 29.743 0 0 0.02 0
6/2/18 5:35 59.3 59.3 59.2 83 54.1 3 SSE 8 SSE 59.3 59.2 29.731 0 0 0.02 0
6/2/18 5:40 59.4 59.4 59.3 83 54.2 5 SSE 9 SE 59.3 59.3 29.741 0 0 0.019 0
6/2/18 5:45 59.5 59.5 59.4 83 54.3 4 SSE 9 SSE 59.5 59.4 29.747 0 0 0.019 0
6/2/18 5:50 59.5 59.6 59.5 83 54.3 2 S 5 S 59.5 59.4 29.746 0 0 0.019 0
6/2/18 5:55 59.6 59.6 59.5 83 54.4 3 S 8 SW 59.6 59.5 29.746 0 0 0.019 0
6/2/18 6:00 59.6 59.7 59.5 83 54.4 4 SSE 6 SSE 59.6 59.5 29.748 0 0 0.019 0
6/2/18 6:05 59.7 59.8 59.6 83 54.5 4 SSE 9 SSW 59.7 59.6 29.75 0 0 0.018 0
6/2/18 6:10 59.9 59.9 59.7 83 54.7 4 SSE 10 SSE 59.9 59.8 29.745 0 0 0.018 0
6/2/18 6:15 60 60 59.9 83 54.8 3 SSE 7 SW 60 59.9 29.743 0 0 0.017 0
6/2/18 6:20 60 60 60 84 55.2 3 SSW 7 SSW 60 60 29.746 0.01 0 0.017 0
6/2/18 6:25 60.2 60.2 60 84 55.3 4 SSE 7 S 60.2 60.2 29.749 0 0 0.017 0
6/2/18 6:30 60.3 60.3 60.2 83 55.1 3 SSE 6 SSE 60.3 60.2 29.748 0 0 0.016 0
6/2/18 6:35 60.4 60.4 60.3 83 55.2 3 SSE 7 SSE 60.4 60.4 29.743 0 0 0.016 0
6/2/18 6:40 60.5 60.5 60.4 84 55.6 3 SSE 7 SSE 60.5 60.5 29.745 0 0 0.016 0
6/2/18 6:45 60.6 60.6 60.5 84 55.7 5 SSE 8 SSE 60.6 60.6 29.744 0 0 0.015 0
6/2/18 6:50 60.7 60.7 60.6 84 55.8 4 SSE 11 SE 60.7 60.7 29.748 0 0 0.015 0
6/2/18 6:55 60.8 60.9 60.7 84 55.9 3 SSE 8 SSE 60.8 60.8 29.75 0 0 0.015 0
6/2/18 7:00 60.9 60.9 60.8 84 56 3 SSE 7 SSW 60.9 61 29.748 0 0 0.014 0
6/2/18 7:05 61 61 60.8 84 56.1 4 SSE 8 SSE 61 61.1 29.748 0 0 0.014 0
6/2/18 7:10 61 61.1 61 84 56.1 3 S 8 SE 61 61.1 29.745 0 0 0.014 0
6/2/18 7:15 61.2 61.2 61 84 56.3 3 SSE 7 S 61.2 61.3 29.751 0 0 0.013 0
6/2/18 7:20 61.3 61.3 61.2 84 56.4 1 SW 6 S 61.3 61.4 29.75 0 0 0.013 0
6/2/18 7:25 61.4 61.4 61.3 84 56.5 2 S 6 SSW 61.4 61.5 29.752 0 0 0.012 0
6/2/18 7:30 61.6 61.6 61.4 83 56.4 1 W 4 W 61.6 61.7 29.754 0 0 0.012 0
6/2/18 7:35 61.9 61.9 61.6 83 56.7 2 SSE 5 SSE 61.9 62 29.755 0 0 0.011 0
6/2/18 7:40 61.9 62 61.9 82 56.3 1 SSE 2 SSE 61.9 62 29.756 0 0 0.011 0
6/2/18 7:45 61.9 62 61.9 83 56.7 2 SSE 5 SSE 61.9 62 29.757 0 0 0.011 0
6/2/18 7:50 62.1 62.1 61.9 82 56.5 0 -- 2 W 62.1 62.3 29.763 0 0 0.01 0
6/2/18 7:55 62.2 62.2 62 81 56.3 2 WSW 6 WNW 62.2 62.3 29.763 0 0 0.01 0
6/2/18 8:00 62.2 62.2 62.1 80 56 2 WSW 6 W 62.2 62.3 29.763 0 0 0.01 0
6/2/18 8:05 62 62.2 62 80 55.8 3 W 12 WSW 62 62.1 29.759 0 0 0.01 0
6/2/18 8:10 61.5 62 61.5 82 56 1 W 4 SSW 61.5 61.6 29.765 0.02 0.17 0.012 0
6/2/18 8:15 61 61.5 61 83 55.8 1 W 3 WNW 61 61 29.772 0 0.11 0.014 0
6/2/18 8:20 60.5 61 60.5 83 55.3 1 W 3 W 60.5 60.5 29.77 0.04 1.29 0.016 0
6/2/18 8:25 60.1 60.5 60.1 84 55.2 0 -- 2 SSE 60.1 60.1 29.775 0.01 0.3 0.017 0
6/2/18 8:30 59.9 60.1 59.9 85 55.4 0 -- 1 WSW 59.9 59.9 29.773 0.02 0.15 0.018 0
6/2/18 8:35 59.8 59.9 59.7 86 55.6 1 SSE 3 SSE 59.8 59.8 29.763 0.01 0.23 0.018 0
6/2/18 8:40 59.7 59.8 59.7 86 55.5 0 -- 4 S 59.7 59.7 29.769 0.01 0.19 0.018 0
6/2/18 8:45 59.6 59.7 59.6 87 55.7 1 S 4 SSE 59.6 59.7 29.775 0.02 0.28 0.019 0
6/2/18 8:50 59.6 59.6 59.6 87 55.7 1 SSE 3 SSE 59.6 59.7 29.774 0 0.08 0.019 0
6/2/18 8:55 59.6 59.7 59.5 87 55.7 2 S 4 S 59.6 59.7 29.774 0 0.05 0.019 0
6/2/18 9:00 59.7 59.7 59.6 87 55.8 2 S 4 SSE 59.7 59.8 29.779 0.01 0.05 0.018 0
6/2/18 9:05 59.6 59.7 59.6 87 55.7 3 S 6 S 59.6 59.7 29.779 0 0.04 0.019 0
6/2/18 9:10 59.6 59.7 59.6 87 55.7 2 SE 5 S 59.6 59.7 29.775 0.01 0.05 0.019 0
6/2/18 9:15 59.7 59.7 59.6 88 56.1 3 SSE 5 SSE 59.7 59.9 29.777 0 0.05 0.018 0
6/2/18 9:20 59.7 59.7 59.6 88 56.1 2 S 7 S 59.7 59.9 29.778 0 0.05 0.018 0
6/2/18 9:25 59.6 59.7 59.6 87 55.7 2 S 6 SSE 59.6 59.7 29.777 0 0.04 0.019 0
6/2/18 9:30 59.7 59.7 59.6 88 56.1 2 SSW 5 S 59.7 59.9 29.774 0 0 0.018 0
6/2/18 9:35 59.8 59.8 59.7 88 56.2 2 S 5 SSE 59.8 60 29.778 0 0 0.018 0
6/2/18 9:40 60.1 60.1 59.9 88 56.5 3 SSE 7 SSE 60.1 60.3 29.777 0 0 0.017 0
6/2/18 9:45 60.2 60.2 60.1 88 56.6 2 S 4 S 60.2 60.4 29.777 0 0 0.017 0
6/2/18 9:50 60.2 60.3 60.2 87 56.3 3 SSE 6 SSE 60.2 60.3 29.775 0 0 0.017 0
6/2/18 9:55 60.4 60.4 60.2 87 56.5 3 SSW 8 SSE 60.4 60.6 29.775 0 0 0.016 0
6/2/18 10:00 60.5 60.5 60.4 87 56.6 2 S 6 S 60.5 60.7 29.778 0 0 0.016 0
6/2/18 10:05 60.6 60.6 60.5 87 56.7 2 SSW 5 S 60.6 60.8 29.778 0 0 0.015 0
6/2/18 10:10 60.9 60.9 60.5 87 57 3 SSE 9 SSW 60.9 61.1 29.779 0 0 0.014 0
6/2/18 10:15 61 61 60.9 86 56.8 2 SSE 6 SSW 61 61.2 29.777 0 0 0.014 0
6/2/18 10:20 61.3 61.3 61 87 57.4 1 S 4 SSE 61.3 61.6 29.775 0 0 0.013 0
6/2/18 10:25 61.6 61.6 61.3 86 57.4 1 S 5 S 61.6 61.8 29.775 0 0 0.012 0
6/2/18 10:30 61.8 61.8 61.6 85 57.2 1 SW 3 SSE 61.8 62 29.774 0 0 0.011 0
6/2/18 10:35 62.1 62.1 61.9 84 57.2 2 SW 7 W 62.1 62.3 29.773 0 0 0.01 0
6/2/18 10:40 61.8 62.1 61.8 79 55.2 5 WSW 13 W 61.8 61.8 29.776 0 0 0.011 0
6/2/18 10:45 61.7 61.8 61.6 79 55.1 3 SSW 11 WSW 61.7 61.7 29.778 0 0 0.011 0
6/2/18 10:50 61.6 61.7 61.6 79 55 5 WSW 13 WSW 61.6 61.5 29.779 0 0 0.012 0
6/2/18 10:55 61.8 61.8 61.6 77 54.5 5 W 18 W 61.8 61.6 29.779 0 0 0.011 0
6/2/18 11:00 62.1 62.1 61.8 76 54.4 5 WSW 10 W 62.1 61.9 29.778 0 0 0.01 0
6/2/18 11:05 62.3 62.3 62.2 75 54.3 4 WSW 8 SW 62.3 62 29.781 0 0 0.009 0
6/2/18 11:10 62.5 62.5 62.3 76 54.8 3 WSW 9 W 62.5 62.3 29.783 0 0 0.009 0
6/2/18 11:15 62.6 62.6 62.4 74 54.2 4 WSW 10 W 62.6 62.3 29.784 0 0 0.008 0
6/2/18 11:20 62.8 62.8 62.5 72 53.6 5 W 11 W 62.8 62.4 29.787 0 0 0.008 0
6/2/18 11:25 62.9 62.9 62.9 71 53.4 5 W 13 W 62.9 62.4 29.786 0 0 0.007 0
6/2/18 11:30 62.7 62.9 62.7 71 53.2 5 W 13 W 62.7 62.2 29.785 0 0 0.008 0
6/2/18 11:35 62.8 62.9 62.7 69 52.5 8 W 15 W 61.9 62.2 29.785 0 0 0.008 0
6/2/18 11:40 63.9 63.9 62.9 68 53.1 8 W 15 WNW 63.1 63.4 29.784 0 0 0.004 0
6/2/18 11:45 65.2 65.2 63.9 67 54 7 W 14 NW 65.2 64.8 29.785 0 0 0 0.001
6/2/18 11:50 65.7 66.2 65.2 63 52.8 6 W 16 W 65.7 65.1 29.787 0 0 0 0.002
6/2/18 11:55 64.7 65.6 64.7 64 52.2 8 W 18 W 64 64 29.789 0 0 0.001 0
6/2/18 12:00 64.7 64.8 64.6 65 52.7 8 W 17 W 64 64.1 29.786 0 0 0.001 0
6/2/18 12:05 64.6 64.9 64.6 64 52.1 6 WSW 15 SW 64.6 63.9 29.788 0 0 0.001 0
6/2/18 12:10 64.9 64.9 64.3 63 52 7 W 15 WNW 64.9 64.1 29.785 0 0 0 0
6/2/18 12:15 65.6 65.6 64.9 65 53.5 8 W 14 WNW 65 65.1 29.782 0 0 0 0.002
6/2/18 12:20 65.3 65.7 65.3 63 52.4 8 W 16 WSW 64.7 64.6 29.782 0 0 0 0.001
6/2/18 12:25 64.5 65.3 64.5 63 51.6 8 W 15 W 63.8 63.7 29.78 0 0 0.002 0
6/2/18 12:30 64.1 64.5 64 64 51.7 9 WSW 22 WNW 62.5 63.3 29.778 0 0 0.003 0
6/2/18 12:35 64.1 64.2 64 63 51.2 9 W 20 W 62.5 63.2 29.78 0 0 0.003 0
6/2/18 12:40 63.9 64 63.9 63 51.1 9 W 19 WSW 62.3 63 29.779 0 0 0.004 0
6/2/18 12:45 63.8 63.9 63.8 63 51 7 WSW 20 SW 63.8 62.9 29.778 0 0 0.004 0
6/2/18 12:50 64.5 64.5 63.8 64 52 7 W 18 W 64.5 63.8 29.772 0 0 0.002 0
6/2/18 12:55 66.1 66.1 64.6 60 51.8 8 W 19 W 65.5 65.2 29.771 0 0 0 0.004
6/2/18 13:00 65 66.1 65 62 51.7 10 W 19 W 62.8 64.2 29.768 0 0 0 0
6/2/18 13:05 64.7 65 64.7 62 51.4 8 W 15 NNW 64 63.8 29.768 0 0 0.001 0
6/2/18 13:10 64.9 64.9 64.6 63 52 9 W 18 W 63.5 64.1 29.768 0 0 0 0
6/2/18 13:15 64.6 64.9 64.6 62 51.3 8 W 13 WNW 63.9 63.7 29.765 0 0 0.001 0
6/2/18 13:20 64.7 64.7 64.5 62 51.4 7 W 14 WSW 64.7 63.8 29.765 0 0 0.001 0
6/2/18 13:25 64.5 64.8 64.5 61 50.7 10 W 20 W 62.2 63.5 29.768 0 0 0.002 0
6/2/18 13:30 64.5 64.5 64.3 62 51.2 9 W 22 NW 63 63.6 29.768 0 0 0.002 0
6/2/18 13:35 65.6 65.6 64.5 61 51.8 6 W 13 W 65.6 64.8 29.768 0 0 0 0.002
6/2/18 13:40 65.2 65.6 65.2 60 51 8 WSW 14 WNW 64.6 64.2 29.768 0 0 0 0.001
6/2/18 13:45 65.1 65.2 65.1 60 50.9 10 W 19 WSW 62.9 64.1 29.764 0 0 0 0
6/2/18 13:50 65.6 65.6 65.1 61 51.8 6 WSW 17 W 65.6 64.8 29.765 0 0 0 0.002
6/2/18 13:55 65.9 66.1 65.6 60 51.6 7 WSW 16 SW 65.9 65 29.766 0 0 0 0.003
6/2/18 14:00 65.2 65.9 65.2 60 51 9 W 20 WNW 63.8 64.2 29.766 0 0 0 0.001
6/2/18 14:05 64.9 65.3 64.9 60 50.7 9 W 17 W 63.5 63.9 29.767 0 0 0 0
6/2/18 14:10 65.4 65.4 64.9 60 51.1 7 W 21 WNW 65.4 64.4 29.769 0 0 0 0.001
6/2/18 14:15 66.3 66.3 65.4 59 51.5 8 W 20 WSW 65.7 65.4 29.77 0 0 0 0.005
6/2/18 14:20 66.2 66.4 66.2 59 51.4 9 W 17 WNW 64.9 65.3 29.77 0 0 0 0.004
6/2/18 14:25 66 66.4 66 58 50.8 10 W 21 W 64 65 29.775 0 0 0 0.003
6/2/18 14:30 65.4 65.9 65.4 59 50.7 10 W 21 NNW 63.3 64.4 29.773 0 0 0 0.001
6/2/18 14:35 65.1 65.4 65.1 60 50.9 10 W 18 W 62.9 64.1 29.773 0 0 0 0
6/2/18 14:40 65.1 65.2 65.1 60 50.9 9 WNW 20 WNW 63.7 64.1 29.775 0 0 0 0
6/2/18 14:45 65.5 65.5 65 61 51.7 6 W 13 WNW 65.5 64.6 29.78 0 0 0 0.002
6/2/18 14:50 65.6 65.8 65.5 59 50.9 10 W 17 WNW 63.5 64.6 29.782 0 0 0 0.002
6/2/18 14:55 65 65.6 65 59 50.3 10 W 19 W 62.8 63.9 29.784 0 0 0 0
6/2/18 15:00 64.3 64.9 64.3 60 50.1 9 W 24 W 62.8 63.2 29.786 0 0 0.002 0
6/2/18 15:05 63.9 64.3 63.9 62 50.6 9 W 17 W 62.3 63 29.79 0 0 0.004 0
6/2/18 15:10 63.8 64 63.8 61 50.1 9 W 19 WNW 62.2 62.8 29.794 0 0 0.004 0
6/2/18 15:15 63.8 63.9 63.8 62 50.5 9 W 18 W 62.2 62.8 29.794 0 0 0.004 0
6/2/18 15:20 63.6 63.7 63.6 62 50.3 7 W 14 NW 63.6 62.6 29.795 0 0 0.005 0
6/2/18 15:25 63 63.6 63 62 49.8 8 W 15 W 62.1 62 29.8 0 0 0.007 0
6/2/18 15:30 62.8 63 62.8 63 50 8 W 20 W 61.9 61.8 29.802 0 0 0.008 0
6/2/18 15:35 62.8 62.8 62.7 63 50 7 W 15 W 62.7 61.8 29.801 0 0 0.008 0
6/2/18 15:40 63.1 63.1 62.8 63 50.3 6 W 13 WNW 63.1 62.1 29.803 0 0 0.007 0
6/2/18 15:45 63 63.2 63 63 50.2 7 W 14 WSW 62.9 62 29.803 0 0 0.007 0
6/2/18 15:50 62.9 63 62.9 63 50.1 7 WNW 13 WNW 62.8 61.9 29.805 0 0 0.007 0
6/2/18 15:55 62.8 62.9 62.8 63 50 7 W 13 SW 62.7 61.8 29.803 0 0 0.008 0
6/2/18 16:00 62.8 62.8 62.7 64 50.4 5 W 9 W 62.8 61.9 29.805 0 0 0.008 0
6/2/18 16:05 62.5 62.8 62.5 65 50.6 7 W 14 W 62.3 61.7 29.806 0 0 0.009 0
6/2/18 16:10 62.4 62.6 62.3 65 50.5 6 WNW 13 WNW 62.4 61.5 29.807 0 0 0.009 0
6/2/18 16:15 62.5 62.5 62.3 65 50.6 6 W 14 W 62.5 61.7 29.808 0 0 0.009 0
6/2/18 16:20 62.4 62.5 62.4 64 50.1 10 W 17 NW 59.8 61.5 29.811 0 0 0.009 0
6/2/18 16:25 62.5 62.5 62.4 64 50.2 7 WNW 16 W 62.3 61.6 29.811 0 0 0.009 0
6/2/18 16:30 62.4 62.5 62.4 64 50.1 8 WNW 14 W 61.4 61.5 29.814 0 0 0.009 0
6/2/18 16:35 62.5 62.5 62.4 64 50.2 8 W 14 WNW 61.5 61.6 29.809 0 0 0.009 0
6/2/18 16:40 62.7 62.7 62.4 64 50.3 7 WNW 16 WNW 62.5 61.8 29.812 0 0 0.008 0
6/2/18 16:45 63.1 63.1 62.7 61 49.4 10 WNW 20 WSW 60.6 62 29.812 0 0 0.007 0
6/2/18 16:50 63.2 63.3 63.1 61 49.5 9 W 19 WSW 61.4 62.1 29.812 0 0 0.006 0
6/2/18 16:55 63.1 63.3 63.1 61 49.4 9 W 15 WNW 61.3 62 29.812 0 0 0.007 0
6/2/18 17:00 62.9 63.1 62.9 61 49.2 10 WNW 19 WNW 60.4 61.8 29.816 0 0 0.007 0
6/2/18 17:05 62.6 62.9 62.6 61 49 9 W 16 WNW 60.7 61.4 29.813 0 0 0.008 0
6/2/18 17:10 62.6 62.7 62.6 61 49 7 W 14 WSW 62.4 61.4 29.818 0 0 0.008 0
6/2/18 17:15 62.6 62.6 62.5 61 49 8 W 19 NW 61.6 61.4 29.818 0 0 0.008 0
6/2/18 17:20 62.5 62.6 62.5 61 48.9 9 WNW 17 NW 60.6 61.3 29.818 0 0 0.009 0
6/2/18 17:25 62.3 62.5 62.3 60 48.2 11 W 21 NW 59 61 29.818 0 0 0.009 0
6/2/18 17:30 62.1 62.3 62.1 60 48 8 W 16 NNW 61 60.8 29.821 0 0 0.01 0
6/2/18 17:35 62.1 62.2 62.1 61 48.5 8 W 19 WSW 61 60.9 29.82 0 0 0.01 0
6/2/18 17:40 62.3 62.3 62.1 61 48.7 8 W 15 WNW 61.3 61.1 29.819 0 0 0.009 0
6/2/18 17:45 62.3 62.3 62.2 60 48.2 6 W 12 WSW 62.3 61 29.82 0 0 0.009 0
6/2/18 17:50 62.3 62.3 62.3 60 48.2 8 WNW 14 WNW 61.3 61 29.821 0 0 0.009 0
6/2/18 17:55 62.3 62.4 62.3 60 48.2 9 W 18 NW 60.4 61 29.818 0 0 0.009 0
6/2/18 18:00 62.4 62.4 62.3 60 48.3 7 W 15 WSW 62.2 61.1 29.821 0 0 0.009 0
6/2/18 18:05 62.3 62.4 62.3 59 47.8 9 W 17 WNW 60.4 61 29.82 0 0 0.009 0
6/2/18 18:10 62.1 62.3 62.1 60 48 8 W 13 NW 61 60.8 29.824 0 0 0.01 0
6/2/18 18:15 62 62.2 62 60 48 6 W 12 WNW 62 60.7 29.828 0 0 0.01 0
6/2/18 18:20 61.8 62 61.8 60 47.8 8 W 15 NW 60.7 60.5 29.828 0 0 0.011 0
6/2/18 18:25 61.7 61.9 61.7 60 47.7 7 W 15 W 61.3 60.4 29.831 0 0 0.011 0
6/2/18 18:30 61.6 61.8 61.6 60 47.6 10 WNW 20 W 58.8 60.3 29.83 0 0 0.012 0
6/2/18 18:35 61.4 61.6 61.4 61 47.8 7 WNW 12 WNW 60.9 60.1 29.831 0 0 0.012 0
6/2/18 18:40 61.3 61.5 61.3 61 47.7 9 W 17 W 59.2 60 29.833 0 0 0.013 0
6/2/18 18:45 61.2 61.3 61.2 61 47.6 8 WNW 14 WNW 59.9 59.9 29.836 0 0 0.013 0
6/2/18 18:50 61.1 61.2 61.1 62 48 6 WNW 14 WSW 60.9 59.9 29.834 0 0 0.014 0
6/2/18 18:55 61.1 61.1 61 62 48 7 W 13 WSW 60.5 59.9 29.837 0 0 0.014 0
6/2/18 19:00 61 61.1 61 62 47.9 8 W 17 WNW 59.7 59.8 29.837 0 0 0.014 0
6/2/18 19:05 61 61.1 61 61 47.4 9 WNW 17 NW 58.9 59.7 29.837 0 0 0.014 0
6/2/18 19:10 60.9 61 60.9 60 46.9 8 WNW 14 NNW 59.6 59.5 29.839 0 0 0.014 0
6/2/18 19:15 60.9 61 60.9 61 47.4 6 W 12 W 60.7 59.6 29.838 0 0 0.014 0
6/2/18 19:20 60.8 60.9 60.8 60 46.8 8 WNW 17 WNW 59.5 59.4 29.835 0 0 0.015 0
6/2/18 19:25 60.8 60.9 60.8 60 46.8 9 WNW 18 WNW 58.7 59.4 29.837 0 0 0.015 0
6/2/18 19:30 60.8 60.8 60.8 61 47.3 8 WNW 15 W 59.5 59.5 29.836 0 0 0.015 0
6/2/18 19:35 60.7 60.8 60.7 61 47.2 8 W 15 W 59.3 59.4 29.835 0 0 0.015 0
6/2/18 19:40 60.6 60.7 60.6 61 47.1 6 WNW 17 WNW 60.3 59.3 29.833 0 0 0.015 0
6/2/18 19:45 60.6 60.7 60.6 61 47.1 7 W 17 W 59.9 59.3 29.836 0 0 0.015 0
6/2/18 19:50 60.6 60.6 60.5 60 46.6 8 W 21 SW 59.2 59.2 29.834 0 0 0.015 0
6/2/18 19:55 60.6 60.7 60.5 60 46.6 9 WNW 17 W 58.4 59.2 29.834 0 0 0.015 0
6/2/18 20:00 60.7 60.7 60.6 60 46.7 6 W 14 W 60.4 59.3 29.834 0 0 0.015 0
6/2/18 20:05 60.7 60.8 60.7 59 46.3 9 WNW 15 W 58.5 59.2 29.831 0 0 0.015 0
6/2/18 20:10 60.8 60.8 60.7 59 46.4 10 WNW 19 WNW 57.9 59.3 29.832 0 0 0.015 0
6/2/18 20:15 60.7 60.8 60.7 59 46.3 9 WNW 17 W 58.5 59.2 29.832 0 0 0.015 0
6/2/18 20:20 60.6 60.7 60.6 59 46.2 9 W 16 NW 58.4 59.1 29.834 0 0 0.015 0
6/2/18 20:25 60.5 60.6 60.5 59 46.1 7 WNW 14 WNW 59.8 59 29.832 0 0 0.016 0
6/2/18 20:30 60.3 60.5 60.3 59 45.9 10 WNW 19 WNW 57.3 58.8 29.834 0 0 0.016 0
6/2/18 20:35 60.2 60.4 60.2 59 45.8 7 WNW 17 WSW 59.4 58.7 29.832 0 0 0.017 0
6/2/18 20:40 60.2 60.3 60.2 60 46.3 7 WNW 14 NW 59.4 58.8 29.832 0 0 0.017 0
6/2/18 20:45 60.2 60.2 60.2 59 45.8 8 W 19 WNW 58.7 58.7 29.834 0 0 0.017 0
6/2/18 20:50 60.2 60.3 60.2 59 45.8 10 WNW 18 WNW 57.2 58.7 29.832 0 0 0.017 0
6/2/18 20:55 60.2 60.3 60.2 59 45.8 8 WNW 19 WNW 58.7 58.7 29.837 0 0 0.017 0
6/2/18 21:00 60.1 60.2 60.1 59 45.7 7 W 13 WNW 59.3 58.6 29.828 0 0 0.017 0
6/2/18 21:05 59.9 60.1 59.9 59 45.5 6 WNW 12 NW 59.5 58.4 29.827 0 0 0.018 0
6/2/18 21:10 59.9 60 59.8 59 45.5 7 WNW 12 WSW 59.1 58.4 29.827 0 0 0.018 0
6/2/18 21:15 59.9 59.9 59.9 59 45.5 9 W 16 WNW 57.6 58.4 29.83 0 0 0.018 0
6/2/18 21:20 59.9 59.9 59.8 59 45.5 8 WNW 19 WNW 58.4 58.4 29.83 0 0 0.018 0
6/2/18 21:25 59.9 59.9 59.8 59 45.5 9 WNW 19 WNW 57.6 58.4 29.829 0 0 0.018 0
6/2/18 21:30 59.9 59.9 59.8 58 45.1 11 WNW 23 W 56.2 58.4 29.834 0 0 0.018 0
6/2/18 21:35 59.9 59.9 59.8 57 44.6 11 WNW 19 WNW 56.2 58.3 29.834 0 0 0.018 0
6/2/18 21:40 59.7 59.9 59.7 58 44.9 8 WNW 20 WNW 58.1 58.2 29.834 0 0 0.018 0
6/2/18 21:45 59.7 59.8 59.6 58 44.9 10 NW 19 NW 56.6 58.2 29.832 0 0 0.018 0
6/2/18 21:50 59.7 59.7 59.7 57 44.4 9 WNW 17 WNW 57.3 58.1 29.834 0 0 0.018 0
6/2/18 21:55 59.6 59.7 59.6 58 44.8 9 WNW 16 NNW 57.2 58.1 29.839 0 0 0.019 0
6/2/18 22:00 59.5 59.6 59.5 58 44.7 11 WNW 24 SSE 55.8 58 29.837 0 0 0.019 0
6/2/18 22:05 59.3 59.5 59.3 58 44.5 9 W 16 WNW 56.9 57.8 29.837 0 0 0.02 0
6/2/18 22:10 59.2 59.3 59.2 58 44.4 8 WNW 17 NW 57.5 57.7 29.836 0 0 0.02 0
6/2/18 22:15 59 59.2 59 58 44.2 9 WNW 19 W 56.5 57.5 29.841 0 0 0.021 0
6/2/18 22:20 58.9 59 58.8 58 44.1 10 WNW 23 NW 55.7 57.4 29.843 0 0 0.021 0
6/2/18 22:25 58.7 58.9 58.7 59 44.4 9 WNW 19 WNW 56.1 57.2 29.841 0 0 0.022 0
6/2/18 22:30 58.6 58.7 58.5 59 44.3 9 WNW 19 WSW 56 57.1 29.846 0 0 0.022 0
6/2/18 22:35 58.4 58.6 58.4 60 44.6 8 WNW 20 WNW 56.6 57 29.846 0 0 0.023 0
6/2/18 22:40 58.3 58.4 58.3 60 44.5 9 WNW 17 WNW 55.7 56.9 29.848 0 0 0.023 0
6/2/18 22:45 58.3 58.3 58.3 60 44.5 9 WNW 16 WNW 55.7 56.9 29.849 0 0 0.023 0
6/2/18 22:50 58.2 58.3 58.2 60 44.4 9 WNW 23 WNW 55.5 56.8 29.849 0 0 0.024 0
6/2/18 22:55 58.1 58.2 58.1 60 44.3 8 WNW 15 WNW 56.2 56.7 29.848 0 0 0.024 0
6/2/18 23:00 58.1 58.1 58.1 61 44.7 8 WNW 15 WNW 56.2 56.8 29.846 0 0 0.024 0
6/2/18 23:05 58.1 58.1 58 61 44.7 7 W 15 WSW 56.9 56.8 29.846 0 0 0.024 0
6/2/18 23:10 58 58.1 58 61 44.6 8 WNW 17 NW 56.1 56.7 29.845 0 0 0.024 0
6/2/18 23:15 58 58.1 57.9 61 44.6 8 W 16 WNW 56.1 56.7 29.847 0 0 0.024 0
6/2/18 23:20 58 58 57.9 61 44.6 10 W 21 WNW 54.6 56.7 29.847 0 0 0.024 0
6/2/18 23:25 57.9 58 57.9 61 44.5 9 W 16 WNW 55.2 56.6 29.847 0 0 0.025 0
6/2/18 23:30 57.8 57.9 57.8 61 44.4 8 W 14 WNW 55.9 56.5 29.847 0 0 0.025 0
6/2/18 23:35 57.8 57.9 57.8 61 44.4 8 WNW 14 WNW 55.9 56.5 29.848 0 0 0.025 0
6/2/18 23:40 57.8 57.8 57.8 61 44.4 8 WNW 15 WNW 55.9 56.5 29.846 0 0 0.025 0
6/2/18 23:45 57.8 57.8 57.7 62 44.9 8 WNW 15 WNW 55.9 56.5 29.844 0 0 0.025 0
6/2/18 23:50 57.7 57.8 57.7 62 44.8 9 WNW 16 W 54.9 56.4 29.844 0 0 0.025 0
6/2/18 23:55 57.7 57.8 57.7 62 44.8 8 W 17 W 55.7 56.4 29.841 0 0 0.025 0
6/3/18 0:00 57.7 57.8 57.7 62 44.8 10 WNW 16 W 54.3 56.4 29.843 0 0 0.025 0
6/3/18 0:05 57.7 57.8 57.7 62 44.8 8 WNW 14 W 55.7 56.4 29.842 0 0 0.025 0
6/3/18 0:10 57.8 57.8 57.7 62 44.9 8 W 18 NW 55.9 56.5 29.842 0 0 0.025 0
6/3/18 0:15 57.8 57.8 57.7 62 44.9 9 WNW 17 W 55.1 56.5 29.842 0 0 0.025 0
6/3/18 0:20 57.8 57.8 57.7 62 44.9 8 WNW 15 W 55.9 56.5 29.842 0 0 0.025 0
6/3/18 0:25 57.7 57.8 57.7 62 44.8 7 W 15 WNW 56.4 56.4 29.843 0 0 0.025 0
6/3/18 0:30 57.7 57.8 57.7 62 44.8 8 WNW 16 SSW 55.7 56.4 29.839 0 0 0.025 0
6/3/18 0:35 57.7 57.8 57.7 63 45.2 8 W 20 WNW 55.7 56.5 29.839 0 0 0.025 0
6/3/18 0:40 57.7 57.8 57.7 63 45.2 8 WNW 17 W 55.7 56.5 29.839 0 0 0.025 0
6/3/18 0:45 57.7 57.7 57.7 63 45.2 8 W 14 W 55.7 56.5 29.841 0 0 0.025 0
6/3/18 0:50 57.7 57.7 57.6 63 45.2 9 WNW 17 NNW 54.9 56.5 29.842 0 0 0.025 0
6/3/18 0:55 57.7 57.7 57.6 63 45.2 10 WNW 18 NW 54.3 56.5 29.839 0 0 0.025 0
6/3/18 1:00 57.7 57.8 57.7 63 45.2 9 W 20 W 54.9 56.5 29.84 0 0 0.025 0
6/3/18 1:05 57.7 57.8 57.7 62 44.8 10 WNW 19 SW 54.3 56.4 29.839 0 0 0.025 0
6/3/18 1:10 57.8 57.8 57.7 62 44.9 10 WNW 20 NW 54.4 56.5 29.84 0 0 0.025 0
6/3/18 1:15 57.8 57.8 57.7 63 45.3 9 WNW 17 WNW 55.1 56.6 29.839 0 0 0.025 0
6/3/18 1:20 57.7 57.8 57.7 63 45.2 9 W 17 WNW 54.9 56.5 29.838 0 0 0.025 0
6/3/18 1:25 57.7 57.7 57.6 63 45.2 10 WNW 17 WNW 54.3 56.5 29.839 0 0 0.025 0
6/3/18 1:30 57.6 57.7 57.6 63 45.1 11 WNW 25 WNW 53.6 56.4 29.842 0 0 0.026 0
6/3/18 1:35 57.6 57.6 57.5 63 45.1 11 WNW 20 WNW 53.6 56.4 29.842 0 0 0.026 0
6/3/18 1:40 57.5 57.6 57.5 63 45 10 WNW 21 WNW 54 56.3 29.844 0 0 0.026 0
6/3/18 1:45 57.5 57.5 57.4 63 45 8 WNW 16 W 55.5 56.3 29.847 0 0 0.026 0
6/3/18 1:50 57.3 57.5 57.3 63 44.8 10 WNW 27 W 53.8 56.1 29.849 0 0 0.027 0
6/3/18 1:55 57.2 57.4 57.2 63 44.7 8 WNW 16 WNW 55.1 56 29.845 0 0 0.027 0
6/3/18 2:00 57.1 57.2 57.1 63 44.6 10 WNW 20 WNW 53.6 55.9 29.846 0 0 0.027 0
6/3/18 2:05 56.7 57.1 56.7 64 44.7 7 WNW 16 W 55.2 55.5 29.851 0 0 0.029 0
6/3/18 2:10 56.4 56.7 56.4 65 44.8 7 WNW 16 NW 54.9 55.3 29.852 0 0 0.03 0
6/3/18 2:15 56.3 56.5 56.3 65 44.7 6 WNW 16 WNW 55.2 55.2 29.851 0 0 0.03 0
6/3/18 2:20 56.3 56.4 56.3 64 44.3 8 WNW 15 WNW 54.1 55.1 29.85 0 0 0.03 0
6/3/18 2:25 56.3 56.4 56.2 64 44.3 7 WNW 16 WNW 54.8 55.1 29.85 0 0 0.03 0
6/3/18 2:30 56.1 56.3 56.1 64 44.1 8 WNW 19 NW 53.8 54.9 29.854 0 0 0.031 0
6/3/18 2:35 56 56.2 56 65 44.4 7 WNW 15 NW 54.4 54.9 29.854 0 0 0.031 0
6/3/18 2:40 55.9 56 55.9 65 44.3 7 WNW 16 W 54.3 54.8 29.855 0 0 0.032 0
6/3/18 2:45 55.8 56 55.8 66 44.6 8 WNW 16 NW 53.5 54.7 29.857 0 0 0.032 0
6/3/18 2:50 55.7 55.9 55.7 66 44.5 8 WNW 16 WNW 53.3 54.6 29.859 0 0 0.032 0
6/3/18 2:55 55.4 55.7 55.4 66 44.2 7 WNW 13 N 53.7 54.4 29.861 0 0 0.033 0
6/3/18 3:00 55.1 55.4 55.1 64 43.1 10 WNW 22 WNW 51.2 54 29.862 0 0 0.034 0
6/3/18 3:05 54.9 55.1 54.9 64 42.9 9 WNW 21 WNW 51.7 53.8 29.863 0 0 0.035 0
6/3/18 3:10 54.7 54.9 54.6 64 42.8 10 WNW 22 WNW 50.8 53.6 29.863 0 0 0.036 0
6/3/18 3:15 54.4 54.7 54.4 64 42.5 6 WNW 16 WNW 52.9 53.3 29.865 0 0 0.037 0
6/3/18 3:20 54.3 54.5 54.3 65 42.8 7 WNW 15 WNW 52.4 53.3 29.868 0 0 0.037 0
6/3/18 3:25 54.1 54.3 54.1 65 42.6 10 WNW 22 NW 50.1 53.1 29.867 0 0 0.038 0
6/3/18 3:30 54 54.1 54 65 42.5 8 WNW 15 NW 51.3 53 29.872 0 0 0.038 0